Terminal Aerodrome Forecast
Issued by NWS Medford, OR

Home | Current Version | Previous Version | Text Only | Print | Product List | Glossary On
Versions: 1 2 3 4 5 6 7 8 9 10 11 12 13 14 15 16 17 18 19 20
000
FTUS46 KMFR 200804 AAA
TAFMFR
TAF AMD
KMFR 200804Z 2008/2106 00000KT 4SM -RA BR BKN008 BKN025 OVC070
     FM201300 14003KT 2SM -RA BR OVC004
     FM202100 VRB03KT 5SM -RA BR SCT007 OVC015=

USA.gov is the U.S. government's official web portal to all federal, state and local government web resources and services.